Latest Weather Observations for Port Hedland

IDW60801

Issued at 7:13 am WST Friday 19 August 2022 (issued every 10 minutes, with the page automatically refreshed every 10 minutes)

About weather observations | Map of weather stations | Latest weather observations for WA | Other Formats
Station Details ID: 004032 Name: PORT HEDLAND AIRPORT Lat: -20.37 Lon: 118.63 Height: 6.4 m
Data from the previous 72 hours. | See also: Recent months at Port Hedland
Date/Time
WST
Temp
°C
App
Temp
°C
Dew
Point
°C
Rel
Hum
%
Delta-T
°C
Wind Press
QNH
hPa
Press
MSL
hPa
Rain since
9am
mm
Dir  Spd
km/h
Gust
km/h
Spd
kts
Gust
kts
19/07:00am 16.1 11.9 1.4 37 6.4 SSE 13 17 7 9 1020.5 1020.5 0.0
19/06:30am 15.8 11.9 1.2 37 6.4 SE 11 17 6 9 1020.1 1020.1 0.0
19/06:00am 15.2 11.3 1.0 38 6.1 SE 11 13 6 7 1019.7 1019.7 0.0
19/05:30am 15.8 12.2 0.4 35 6.6 SSE 9 11 5 6 1019.4 1019.4 0.0
19/05:00am 17.2 12.8 0.4 32 7.3 SE 13 17 7 9 1019.1 1019.1 0.0
19/04:30am 17.9 13.1 0.1 30 7.7 SE 15 19 8 10 1018.8 1018.8 0.0
19/04:00am 18.8 13.1 -0.6 27 8.4 SE 19 24 10 13 1018.4 1018.4 0.0
19/03:30am 19.7 14.0 -0.9 25 8.9 ESE 19 26 10 14 1018.4 1018.4 0.0
19/03:00am 20.8 14.9 -1.1 23 9.5 ESE 20 30 11 16 1018.2 1018.2 0.0
19/02:30am 20.9 15.1 -0.4 24 9.4 ESE 20 30 11 16 1018.2 1018.2 0.0
19/02:00am 20.7 15.0 0.5 26 9.0 ESE 20 28 11 15 1018.3 1018.3 0.0
19/01:30am 19.9 15.0 2.3 31 8.1 SE 17 22 9 12 1018.3 1018.3 0.0
19/01:00am 19.5 15.4 4.4 37 7.2 SE 15 20 8 11 1018.4 1018.4 0.0
19/12:30am 19.9 16.6 6.3 41 6.8 SE 13 19 7 10 1018.6 1018.6 0.0
19/12:00am 20.7 16.8 7.0 41 7.0 SE 17 20 9 11 1018.4 1018.4 0.0
 
Date/Time
WST
Temp
°C
App
Temp
°C
Dew
Point
°C
Rel
Hum
%
Delta-T
°C
Wind Press
QNH
hPa
Press
MSL
hPa
Rain since
9am
mm
Dir  Spd
km/h
Gust
km/h
Spd
kts
Gust
kts
18/11:30pm 19.7 17.6 9.9 53 5.2 SE 11 15 6 8 1018.4 1018.4 0.0
18/11:00pm 21.1 19.1 10.0 49 6.0 SE 11 13 6 7 1018.5 1018.5 0.0
18/10:30pm 20.4 19.3 11.9 58 4.7 SE 9 11 5 6 1018.5 1018.5 0.0
18/10:00pm 20.2 19.6 13.6 66 3.8 SE 9 13 5 7 1018.3 1018.3 0.0
18/09:30pm 21.3 21.6 14.9 67 3.8 SSW 7 11 4 6 1018.0 1018.0 0.0
18/09:00pm 21.1 20.7 15.2 69 3.5 SW 11 13 6 7 1018.0 1018.0 0.0
18/08:30pm 20.8 21.0 15.8 73 3.0 SW 9 11 5 6 1017.8 1017.8 0.0
18/08:00pm 20.9 20.2 15.4 71 3.3 WSW 13 13 7 7 1017.5 1017.5 0.0
18/07:30pm 21.5 21.1 15.1 67 3.8 WSW 11 13 6 7 1017.2 1017.2 0.0
18/07:00pm 22.1 21.5 14.5 62 4.5 W 11 13 6 7 1017.1 1017.1 0.0
18/06:30pm 23.4 22.9 13.8 54 5.6 NW 9 11 5 6 1016.5 1016.5 0.0
18/06:00pm 24.6 23.6 13.5 50 6.5 NNW 11 13 6 7 1016.1 1016.1 0.0
18/05:30pm 26.8 26.1 14.2 46 7.5 NNW 11 13 6 7 1015.6 1015.6 0.0
18/05:00pm 28.2 27.1 14.4 42 8.3 N 13 15 7 8 1015.3 1015.3 0.0
18/04:30pm 31.7 28.8 9.8 26 12.4 ESE 15 19 8 10 1015.1 1015.1 0.0
18/04:00pm 31.7 28.8 9.8 26 12.4 ESE 15 24 8 13 1014.9 1014.9 0.0
18/03:30pm 31.9 28.2 9.4 25 12.7 ESE 19 35 10 19 1014.9 1014.9 0.0
18/03:00pm 31.8 28.4 9.3 25 12.7 ESE 17 30 9 16 1014.9 1014.9 0.0
18/02:30pm 31.8 28.2 10.5 27 12.2 ESE 20 30 11 16 1015.0 1015.0 0.0
18/02:00pm 31.9 28.3 10.6 27 12.3 E 20 28 11 15 1015.3 1015.3 0.0
18/01:30pm 31.3 27.8 10.1 27 12.1 ESE 19 30 10 16 1015.6 1015.6 0.0
18/01:00pm 31.0 26.7 9.3 26 12.2 ESE 22 35 12 19 1016.0 1016.0 0.0
18/12:30pm 30.1 26.1 9.1 27 11.7 SE 20 28 11 15 1016.5 1016.5 0.0
18/12:00pm 29.9 25.9 8.9 27 11.6 ESE 20 33 11 18 1016.9 1016.9 0.0
18/11:30am 29.3 24.6 7.8 26 11.7 ESE 22 33 12 18 1017.3 1017.3 0.0
18/11:00am 28.8 23.6 7.4 26 11.5 SE 24 37 13 20 1017.8 1017.8 0.0
18/10:30am 27.8 22.6 7.1 27 11.0 SE 24 35 13 19 1018.0 1018.0 0.0
18/10:00am 27.4 22.2 7.3 28 10.7 SE 24 33 13 18 1018.2 1018.2 0.0
18/09:30am 26.4 20.7 6.9 29 10.3 SE 26 37 14 20 1018.1 1018.1 0.0
18/09:00am 25.4 20.1 6.6 30 9.8 SE 24 33 13 18 1018.2 1018.2 0.0
18/08:30am 24.4 18.7 6.6 32 9.2 SE 26 35 14 19 1018.1 1018.1 0.0
18/08:00am 23.7 19.2 6.9 34 8.7 SE 20 32 11 17 1017.8 1017.8 0.0
18/07:30am 20.7 18.7 11.6 56 5.0 SSE 13 19 7 10 1017.5 1017.5 0.0
18/07:00am 18.7 16.5 12.2 66 3.6 SSE 15 19 8 10 1017.2 1017.2 0.0
18/06:30am 18.2 16.4 12.0 67 3.4 S 13 17 7 9 1016.7 1016.7 0.0
18/06:00am 18.1 16.8 12.5 70 3.1 S 11 15 6 8 1016.4 1016.4 0.0
18/05:30am 18.3 17.3 13.4 73 2.8 S 11 13 6 7 1016.2 1016.2 0.0
18/05:00am 18.8 17.2 13.9 73 2.8 SSW 15 17 8 9 1015.8 1015.8 0.0
18/04:30am 19.4 18.3 14.4 73 2.9 S 13 17 7 9 1015.5 1015.5 0.0
18/04:00am 19.4 18.1 14.9 75 2.6 SSW 15 17 8 9 1015.2 1015.2 0.0
18/03:30am 19.0 18.3 15.3 79 2.2 SSW 13 15 7 8 1015.1 1015.1 0.0
18/03:00am 19.6 18.4 15.0 75 2.7 SSW 15 19 8 10 1015.2 1015.2 0.0
18/02:30am 20.1 18.8 14.9 72 3.0 SW 15 17 8 9 1015.3 1015.3 0.0
18/02:00am 20.6 19.2 15.6 73 3.0 SW 17 19 9 10 1015.3 1015.3 0.0
18/01:30am 20.1 20.1 17.3 84 1.7 SW 13 15 7 8 1015.5 1015.5 0.0
18/01:00am 20.2 21.0 18.1 88 1.3 WSW 11 13 6 7 1015.5 1015.5 0.0
18/12:30am 21.3 21.9 18.7 85 1.6 WSW 13 17 7 9 1015.7 1015.7 0.0
18/12:00am 21.1 22.4 19.2 89 1.2 W 11 13 6 7 1015.7 1015.7 0.0
 
Date/Time
WST
Temp
°C
App
Temp
°C
Dew
Point
°C
Rel
Hum
%
Delta-T
°C
Wind Press
QNH
hPa
Press
MSL
hPa
Rain since
9am
mm
Dir  Spd
km/h
Gust
km/h
Spd
kts
Gust
kts
17/11:30pm 21.7 22.9 19.8 89 1.2 WNW 13 17 7 9 1015.9 1015.9 0.0
17/11:00pm 22.1 23.5 20.4 90 1.1 WNW 13 17 7 9 1016.1 1016.1 0.0
17/10:30pm 22.4 23.0 20.3 88 1.4 WNW 17 20 9 11 1016.2 1016.2 0.0
17/10:00pm 22.7 23.4 20.4 87 1.5 WNW 17 20 9 11 1016.3 1016.3 0.0
17/09:30pm 23.0 23.1 20.3 85 1.7 WNW 20 24 11 13 1016.3 1016.3 0.0
17/09:00pm 23.1 23.3 20.2 84 1.9 WNW 19 22 10 12 1016.3 1016.3 0.0
17/08:30pm 23.0 23.3 20.3 85 1.7 WNW 19 24 10 13 1016.1 1016.1 0.0
17/08:00pm 23.1 23.3 20.6 86 1.6 W 20 26 11 14 1015.7 1015.7 0.0
17/07:30pm 23.3 23.3 21.0 87 1.5 W 22 28 12 15 1015.6 1015.6 0.0
17/07:00pm 23.5 23.7 21.4 88 1.4 W 22 30 12 16 1015.3 1015.3 0.0
17/06:30pm 23.8 23.0 20.9 84 1.9 WNW 26 35 14 19 1015.1 1015.1 0.0
17/06:00pm 24.3 23.4 20.6 80 2.4 WNW 26 33 14 18 1014.9 1014.9 0.0
17/05:30pm 25.4 25.2 20.6 75 3.1 WNW 22 30 12 16 1014.7 1014.7 0.0
17/05:00pm 26.5 24.8 19.9 67 4.3 WNW 28 35 15 19 1014.5 1014.5 0.0
17/04:30pm 27.4 26.3 20.2 65 4.7 NW 26 30 14 16 1014.2 1014.2 0.0
17/04:00pm 28.3 27.2 20.3 62 5.3 NW 26 32 14 17 1014.3 1014.3 0.0
17/03:30pm 28.9 28.0 20.6 61 5.5 NW 26 32 14 17 1014.3 1014.3 0.0
17/03:00pm 28.8 27.4 20.5 61 5.5 NW 28 35 15 19 1014.3 1014.3 0.0
17/02:30pm 29.2 28.0 20.1 58 6.0 NW 26 32 14 17 1014.5 1014.5 0.0
17/02:00pm 29.8 28.9 20.6 57 6.1 NW 26 32 14 17 1014.6 1014.6 0.0
17/01:30pm 28.8 27.3 20.3 60 5.6 NNW 28 32 15 17 1015.0 1015.0 0.0
17/01:00pm 30.3 30.1 20.5 55 6.5 NW 22 26 12 14 1015.3 1015.3 0.0
17/12:30pm 30.1 30.2 20.4 56 6.4 NNW 20 26 11 14 1015.7 1015.7 0.0
17/12:00pm 30.4 31.4 19.4 51 7.2 WNW 13 20 7 11 1016.0 1016.0 0.0
17/11:30am 30.7 29.9 15.2 39 9.5 WSW 13 22 7 12 1016.4 1016.4 0.0
17/11:00am 29.9 29.7 17.7 48 7.8 SSW 15 24 8 13 1016.9 1016.9 0.0
17/10:30am 29.2 28.8 18.0 50 7.1 SW 17 24 9 13 1017.4 1017.4 0.0
17/10:00am 28.0 27.3 18.7 57 6.0 SW 20 28 11 15 1017.7 1017.7 0.0
17/09:30am 26.1 26.6 19.2 65 4.4 SW 15 20 8 11 1017.9 1017.9 0.0
17/09:00am 24.6 25.9 20.1 76 2.9 SW 13 19 7 10 1017.8 1017.8 0.0
17/08:30am 22.2 24.6 22.2 100 0.0 SW 13 17 7 9 1017.5 1017.5 0.0
17/08:00am 20.4 22.6 20.4 100 0.0 SSW 9 11 5 6 1017.2 1017.2 0.0
17/07:51am 20.2 22.3 20.2 100 0.0 SSW 9 11 5 6 1017.1 1017.1 0.0
17/07:32am 19.6 21.4 19.6 100 0.0 SW 9 11 5 6 1016.9 1016.9 0.0
17/07:30am 19.7 21.2 19.7 100 0.0 SW 11 11 6 6 1016.9 1016.9 0.0
17/07:08am 19.8 21.7 19.8 100 0.0 SSW 9 9 5 5 1016.6 1016.6 0.0
17/07:00am 19.8 22.1 19.8 100 0.0 SW 7 9 4 5 1016.5 1016.5 0.0
17/06:30am 19.8 21.3 19.8 100 0.0 SW 11 13 6 7 1016.2 1016.2 0.0
17/06:21am 19.8 21.0 19.8 100 0.0 SW 13 15 7 8 1016.2 1016.2 0.0
17/06:00am 19.3 20.6 19.3 100 0.0 SSW 11 15 6 8 1016.0 1016.0 0.0
17/05:43am 19.1 20.3 19.1 100 0.0 SW 11 15 6 8 1015.7 1015.7 0.0
17/05:30am 19.0 19.8 19.0 100 0.0 SW 13 19 7 10 1015.6 1015.6 0.0
17/05:17am 18.1 19.2 18.1 100 0.0 SSW 9 17 5 9 1015.5 1015.5 0.0
17/05:11am 17.9 19.0 17.9 100 0.0 SSW 9 11 5 6 1015.4 1015.4 0.0
17/05:04am 17.6 18.9 17.6 100 0.0 SSW 7 11 4 6 1015.3 1015.3 0.0
17/05:00am 17.2 18.3 17.2 100 0.0 S 7 11 4 6 1015.2 1015.2 0.0
17/04:30am 16.5 17.6 16.5 100 0.0 S 6 7 3 4 1014.9 1014.9 0.0
17/04:00am 17.5 18.4 17.5 100 0.0 S 9 11 5 6 1014.5 1014.5 0.0
17/03:30am 16.4 17.2 16.4 100 0.0 SSW 7 7 4 4 1014.4 1014.4 0.0
17/03:00am 16.8 18.0 16.8 100 0.0 SSW 6 7 3 4 1014.3 1014.3 0.0
17/02:30am 17.7 18.7 17.7 100 0.0 SSW 9 11 5 6 1014.5 1014.5 0.0
17/02:00am 17.8 18.8 17.8 100 0.0 SSW 9 13 5 7 1014.9 1014.9 0.0
17/01:30am 17.8 18.4 17.8 100 0.0 SW 11 13 6 7 1014.8 1014.8 0.0
17/01:00am 17.5 18.3 17.2 98 0.2 SW 9 11 5 6 1015.0 1015.0 0.0
17/12:30am 18.1 17.6 17.8 98 0.2 WSW 17 20 9 11 1015.2 1015.2 0.0
17/12:00am 17.7 17.6 16.9 95 0.5 WSW 13 15 7 8 1015.3 1015.3 0.0
 
Date/Time
WST
Temp
°C
App
Temp
°C
Dew
Point
°C
Rel
Hum
%
Delta-T
°C
Wind Press
QNH
hPa
Press
MSL
hPa
Rain since
9am
mm
Dir  Spd
km/h
Gust
km/h
Spd
kts
Gust
kts
16/11:30pm 17.4 16.8 15.7 90 1.0 WSW 13 15 7 8 1015.3 1015.3 0.0
16/11:00pm 18.8 19.7 16.6 87 1.3 NNW 7 7 4 4 1015.7 1015.7 0.0
16/10:30pm 18.3 20.0 15.2 82 1.8 CALM 0 0 0 0 1015.7 1015.7 0.0
16/10:00pm 19.1 20.9 15.6 80 2.1 CALM 0 0 0 0 1015.8 1015.8 0.0
16/09:30pm 19.4 21.0 14.9 75 2.6 CALM 0 0 0 0 1015.9 1015.9 0.0
16/09:00pm 19.5 21.1 15.0 75 2.6 CALM 0 0 0 0 1016.0 1016.0 0.0
16/08:30pm 20.7 22.7 15.9 74 2.9 CALM 0 0 0 0 1016.1 1016.1 0.0
16/08:00pm 20.7 22.5 15.5 72 3.1 CALM 0 0 0 0 1015.8 1015.8 0.0
16/07:30pm 21.8 22.8 16.3 71 3.3 NNW 6 7 3 4 1015.6 1015.6 0.0
16/07:00pm 21.5 22.7 16.0 71 3.3 NNW 4 6 2 3 1015.3 1015.3 0.0
16/06:30pm 22.4 23.3 16.2 68 3.8 NNW 6 7 3 4 1014.9 1014.9 0.0
16/06:00pm 23.3 23.3 15.1 60 4.9 NNW 9 13 5 7 1014.6 1014.6 0.0
16/05:30pm 25.3 23.8 14.1 50 6.6 N 15 17 8 9 1014.3 1014.3 0.0
16/05:00pm 26.5 24.4 14.6 48 7.1 N 19 22 10 12 1014.2 1014.2 0.0
16/04:30pm 27.3 25.4 15.7 49 7.1 N 20 24 11 13 1014.2 1014.2 0.0
16/04:00pm 27.2 25.2 15.6 49 7.1 N 20 28 11 15 1013.8 1013.8 0.0
16/03:30pm 29.2 27.9 15.7 44 8.3 N 17 20 9 11 1013.7 1013.7 0.0
16/03:00pm 30.4 28.2 13.2 35 10.2 NNW 17 20 9 11 1013.6 1013.6 0.0
16/02:30pm 30.8 28.2 10.7 29 11.5 NNW 15 20 8 11 1013.7 1013.7 0.0
16/02:00pm 31.0 28.5 10.9 29 11.6 NNW 15 19 8 10 1013.9 1013.9 0.0
16/01:30pm 30.7 29.0 12.6 33 10.7 N 13 20 7 11 1014.3 1014.3 0.0
16/01:00pm 30.2 28.7 14.3 38 9.6 N 15 17 8 9 1014.7 1014.7 0.0
16/12:30pm 30.0 28.2 14.5 38 9.4 NNE 17 20 9 11 1015.0 1015.0 0.0
16/12:00pm 29.4 27.7 14.8 41 8.9 NNE 17 20 9 11 1015.3 1015.3 0.0
16/11:30am 29.0 26.8 14.4 41 8.8 NNE 19 22 10 12 1015.6 1015.6 0.0
16/11:00am 28.1 25.9 14.3 42 8.3 NNE 19 20 10 11 1015.8 1015.8 0.0
16/10:30am 28.5 27.0 15.4 45 8.0 NNE 17 20 9 11 1016.0 1016.0 0.0
16/10:00am 29.0 29.2 14.8 42 8.6 ESE 7 15 4 8 1016.2 1016.2 0.0
16/09:30am 28.7 29.4 15.6 45 8.0 SE 6 9 3 5 1016.3 1016.3 0.0
16/09:00am 26.9 27.2 15.0 48 7.2 SSE 7 9 4 5 1016.1 1016.1 0.0
16/08:30am 25.2 24.5 13.1 47 7.0 SE 9 11 5 6 1016.0 1016.0 0.0
16/08:00am 22.7 21.2 12.0 50 6.0 SE 11 15 6 8 1015.8 1015.8 0.0
16/07:30am 20.0 18.4 11.5 58 4.7 SE 11 15 6 8 1015.7 1015.7 0.0

Other formats

Comma delimited format used in spreadsheet applications
http://www.bom.gov.au/fwo/IDW60801/IDW60801.94312.axf

JavaScript Object Notation format (JSON) in row-major order
http://www.bom.gov.au/fwo/IDW60801/IDW60801.94312.json

Data quality

Most of these data are generated automatically and are frequently updated. Quality checks on data are not normally performed. It is possible for incorrect values to appear. Refer to information at About Latest Weather Observations and please check the disclaimer before using these data.